Western Grove, AR (72685)

7:07 PM CDT on May 25, 2015 (GMT -0500)
Seedling Rd, St. Joe, AR | | Change Station
CLOSE
Current Station
Personal Weather Station
Location: St. Joe, AR
Elevation: 1132 ft
Nearby Weather Stations
Active Advisory: Tornado Watch

Elev 1132 ft 36.07 °N, 92.77 °W | Updated 9 minutes ago

Partly Cloudy
Partly Cloudy
75.2 °F
Feels Like 75 °F
N
0.0
Wind Variable Wind from NNE

Today
High -- | Low -- °F
--% Chance of Precip.
Yesterday
High -- | Low -- °F
Precip. -- in
5:59 AM 8:18 PM
First Quarter, 53% visible
Pressure 29.89 in
Visibility 10.0 miles
Clouds Clear
Heat Index 75 °F
Dew Point 70 °F
Humidity 83%
Rainfall 0.00 in
Snow Depth Not available.
UV 1 out of 12
Pollen 8.10 out of 12
Air Quality Not available.
Flu Activity No Activity
METAR KHRO 252353Z AUTO 14009KT 10SM CLR 23/18 A2992 RMK AO2 SLP121 T02280183 10267 20228 56009

More Conditions Fewer Conditions

Pressure 29.89 in
Visibility 10.0 miles
Clouds Clear
Heat Index 75 °F
Dew Point 70 °F
Humidity 83%
Rainfall 0.00 in
Snow Depth Not available.
UV 1 out of 12
Pollen 8.10 out of 12
Air Quality Not available.
Flu Activity No Activity
METAR KHRO 252353Z AUTO 14009KT 10SM CLR 23/18 A2992 RMK AO2 SLP121 T02280183 10267 20228 56009

More Conditions Fewer Conditions

10-Day Weather Forecast

Almanac

Astronomy

May. 25, 2015 Rise Set
Actual Time
Civil Twilight
Nautical Twilight
Astronomical Twilight
Moon
Length of Visible Light
Length of Day
Tomorrow will be .
, % of the Moon is Illuminated

Today's Extremes

State Highs State Lows

Community

WunderPhotos

Upload Photos

1,824,180 photos uploaded!

WunderBlogs® & News

Nearby

Air Quality

  Air Quality AQ Index Pollutant
Not available.

Snow Depth

Station Depth Elevation

Earthquake Activity

City Distance Mag. Time & Date
Minimum magnitude displayed is 2.5.

Coastal Water Temperatures

Place Temperature

Stations

Nearby Weather Stations

Station Location Temp. Windchill Dew Point Humidity Wind Precip. Elev Updated Type
                   
Tornado Watch
Statement as of 7:03 PM CDT on May 25, 2015

Tornado Watch 215 remains in effect until 200 am CDT for the
following locations


AR
. Arkansas counties included are

Arkansas Baxter Boone
Bradley Calhoun Clark
Cleburne Cleveland Columbia
Conway Dallas Drew
Faulkner Fulton Garland
Grant Hempstead Hot Spring
Independence Izard Jackson
Jefferson Johnson Lafayette
Lincoln Lonoke Marion
Monroe Montgomery Nevada
Newton Ouachita Perry
Pike Pope prairie
Pulaski Saline Searcy
sharp stone Union
Van Buren white Woodruff
Yell